Terminal Aerodrome Forecast
Issued by NWS

Home | Current Version | Previous Version | Text Only | Print | Product List | Glossary On
Versions: 1 2 3 4 5 6 7 8 9 10 11 12 13 14
000
FTUS43 KDTX 250500
TAFMBS
TAF
KMBS 250520Z 2506/2606 10009KT P6SM BKN080
     FM251300 09007KT 5SM -RA BKN050 OVC100
     FM251500 07008KT 5SM -RA BKN020 OVC030
     FM251800 32012KT P6SM SCT025 BKN035
     FM260100 25010KT P6SM SCT050=

USA.gov is the U.S. government's official web portal to all federal, state and local government web resources and services.